createdAt,value
2022-12-29T00:01:02.245Z,1.30
2022-12-29T00:03:31.738Z,1.67
2022-12-29T00:05:59.757Z,0.98
2022-12-29T00:08:41.595Z,1.80
2022-12-29T00:11:10.813Z,1.65
2022-12-29T00:13:56.190Z,1.55
2022-12-29T00:16:24.347Z,2.13
2022-12-29T00:18:53.797Z,1.50
2022-12-29T00:21:41.381Z,1.30
2022-12-29T00:24:31.257Z,1.40
2022-12-29T00:27:29.000Z,1.33
2022-12-29T00:30:22.564Z,1.65
2022-12-29T00:33:08.033Z,1.83
2022-12-29T00:35:41.491Z,1.58
2022-12-29T00:38:28.650Z,1.05
2022-12-29T00:41:14.361Z,2.15
2022-12-29T00:43:59.719Z,2.05
2022-12-29T00:46:27.589Z,1.63
2022-12-29T00:49:14.152Z,1.67
2022-12-29T00:51:43.269Z,0.85
2022-12-29T00:54:11.397Z,1.77
2022-12-29T00:56:39.243Z,1.55
2022-12-29T00:59:08.770Z,0.52
2022-12-29T01:01:37.356Z,1.63
2022-12-29T01:04:06.001Z,1.80
2022-12-29T01:06:34.811Z,1.13
2022-12-29T01:09:21.961Z,1.50
2022-12-29T01:11:49.975Z,1.27
2022-12-29T01:14:18.420Z,1.40
2022-12-29T01:16:47.063Z,1.02
2022-12-29T01:19:16.067Z,1.00
2022-12-29T01:21:46.136Z,1.55
2022-12-29T01:24:15.884Z,1.60
2022-12-29T01:26:43.676Z,1.38
2022-12-29T01:29:11.682Z,0.98
2022-12-29T01:31:40.359Z,1.15
2022-12-29T01:34:10.332Z,1.30
2022-12-29T01:36:39.567Z,1.50
2022-12-29T01:39:07.326Z,1.02
2022-12-29T01:41:36.641Z,0.60
2022-12-29T01:44:04.622Z,1.95
2022-12-29T01:46:36.834Z,1.25
2022-12-29T01:49:12.875Z,2.42
2022-12-29T01:51:45.617Z,1.30
2022-12-29T01:54:16.905Z,1.77
2022-12-29T01:56:47.291Z,0.98
2022-12-29T01:59:20.259Z,1.40
2022-12-29T02:01:48.763Z,1.15
2022-12-29T02:04:16.958Z,1.55
2022-12-29T02:06:51.758Z,1.27
2022-12-29T02:09:19.770Z,1.33
2022-12-29T02:11:49.306Z,1.98
2022-12-29T02:14:19.491Z,1.48
2022-12-29T02:17:04.283Z,1.33
2022-12-29T02:20:11.183Z,1.50
2022-12-29T02:22:54.133Z,0.93
2022-12-29T02:26:00.178Z,1.10
2022-12-29T02:28:56.248Z,1.17
2022-12-29T02:31:30.710Z,1.00
2022-12-29T02:34:08.997Z,1.75
2022-12-29T02:36:44.950Z,1.13
2022-12-29T02:39:24.141Z,1.35
2022-12-29T02:42:04.429Z,1.00
2022-12-29T02:44:42.067Z,0.90
2022-12-29T02:47:17.781Z,1.15
2022-12-29T02:49:54.698Z,0.95
2022-12-29T02:52:29.678Z,1.20
2022-12-29T02:54:56.503Z,1.30
2022-12-29T02:57:33.726Z,1.05
2022-12-29T03:00:09.567Z,0.75
2022-12-29T03:03:03.190Z,1.13
2022-12-29T03:05:45.188Z,1.42
2022-12-29T03:08:25.232Z,1.00
2022-12-29T03:11:01.612Z,0.32
2022-12-29T03:13:53.672Z,1.33
2022-12-29T03:16:26.135Z,1.02
2022-12-29T03:19:02.092Z,1.20
2022-12-29T03:21:53.384Z,1.23
2022-12-29T03:24:27.174Z,1.00
2022-12-29T03:26:59.903Z,1.05
2022-12-29T03:32:03.605Z,1.50
2022-12-29T03:34:34.192Z,1.00
2022-12-29T03:37:06.940Z,1.20
2022-12-29T03:39:35.358Z,1.00
2022-12-29T03:42:08.652Z,1.10
2022-12-29T03:44:40.132Z,1.05
2022-12-29T03:47:09.651Z,1.25
2022-12-29T03:49:39.379Z,1.40
2022-12-29T03:52:07.637Z,1.50
2022-12-29T03:54:40.953Z,1.33
2022-12-29T03:57:08.743Z,1.35
2022-12-29T03:59:47.033Z,1.20
2022-12-29T04:02:15.105Z,1.60
2022-12-29T04:04:44.692Z,1.20
2022-12-29T04:07:13.439Z,1.40
2022-12-29T04:09:43.783Z,0.82
2022-12-29T04:12:16.589Z,0.80
2022-12-29T04:14:44.907Z,1.52
2022-12-29T04:17:12.978Z,0.80
2022-12-29T04:19:42.364Z,1.08
2022-12-29T04:22:13.317Z,1.02
2022-12-29T04:24:42.175Z,0.93
2022-12-29T04:27:12.345Z,1.20
2022-12-29T04:30:06.106Z,0.98
2022-12-29T04:32:56.619Z,1.05
2022-12-29T04:35:24.378Z,1.30
2022-12-29T04:37:53.561Z,1.38
2022-12-29T04:40:21.847Z,1.20
2022-12-29T04:42:50.140Z,0.93
2022-12-29T04:45:19.778Z,1.20
2022-12-29T04:48:10.324Z,1.10
2022-12-29T04:50:58.350Z,1.23
2022-12-29T04:53:29.591Z,0.80
2022-12-29T04:55:59.647Z,1.02
2022-12-29T04:58:27.996Z,1.02
2022-12-29T05:00:55.791Z,1.40
2022-12-29T05:03:26.236Z,0.80
2022-12-29T05:05:55.464Z,1.33
2022-12-29T05:08:27.964Z,1.48
2022-12-29T05:10:59.646Z,1.20
2022-12-29T05:13:28.001Z,1.00
2022-12-29T05:15:56.249Z,1.00
2022-12-29T05:18:25.329Z,1.08
2022-12-29T05:20:53.225Z,1.17
2022-12-29T05:23:22.543Z,1.20
2022-12-29T05:25:59.901Z,1.13
2022-12-29T05:28:32.701Z,1.00
2022-12-29T05:31:13.320Z,1.15
2022-12-29T05:33:41.267Z,1.65
2022-12-29T05:36:11.118Z,1.20
2022-12-29T05:38:43.191Z,1.27
2022-12-29T05:41:13.286Z,0.80
2022-12-29T05:43:43.703Z,1.55
2022-12-29T05:46:37.636Z,1.17
2022-12-29T05:49:21.757Z,1.05
2022-12-29T05:52:24.804Z,1.33
2022-12-29T05:54:53.005Z,1.45
2022-12-29T05:57:24.808Z,1.15
2022-12-29T06:00:01.465Z,1.38
2022-12-29T06:02:30.928Z,1.67
2022-12-29T06:04:59.031Z,1.75
2022-12-29T06:07:26.902Z,1.27
2022-12-29T06:09:54.824Z,1.15
2022-12-29T06:12:23.986Z,1.40
2022-12-29T06:14:54.628Z,1.27
2022-12-29T06:17:23.378Z,1.20
2022-12-29T06:19:52.143Z,1.17
2022-12-29T06:22:21.142Z,1.60
2022-12-29T06:24:49.023Z,1.92
2022-12-29T06:27:17.104Z,0.98
2022-12-29T06:29:47.113Z,1.85
2022-12-29T06:32:15.030Z,1.60
2022-12-29T06:34:47.899Z,2.15
2022-12-29T06:37:15.970Z,1.45
2022-12-29T06:39:44.208Z,1.60
2022-12-29T06:42:16.110Z,1.50
2022-12-29T06:44:51.249Z,2.10
2022-12-29T06:47:19.533Z,2.08
2022-12-29T06:49:47.619Z,1.48
2022-12-29T06:52:15.353Z,1.90
2022-12-29T06:54:43.140Z,1.90
2022-12-29T06:57:10.945Z,1.38
2022-12-29T06:59:38.704Z,1.58
2022-12-29T07:02:07.998Z,1.48
2022-12-29T07:04:35.889Z,1.10
2022-12-29T07:07:03.661Z,1.50
2022-12-29T07:09:31.412Z,1.15
2022-12-29T07:11:59.171Z,1.52
2022-12-29T07:14:26.924Z,1.33
2022-12-29T07:16:54.700Z,1.48
2022-12-29T07:19:23.907Z,2.40
2022-12-29T07:21:51.704Z,1.48
2022-12-29T07:24:19.531Z,3.72
2022-12-29T07:26:47.936Z,2.30
2022-12-29T07:29:15.772Z,1.35
2022-12-29T07:31:43.565Z,1.60
2022-12-29T07:34:11.574Z,1.98
2022-12-29T07:36:40.765Z,1.63
2022-12-29T07:39:08.690Z,1.63
2022-12-29T07:41:36.635Z,2.25
2022-12-29T07:44:04.526Z,1.42
2022-12-29T07:46:57.501Z,2.00
2022-12-29T07:49:25.843Z,1.67
2022-12-29T07:51:55.421Z,1.42
2022-12-29T07:54:23.530Z,1.60
2022-12-29T07:56:52.345Z,1.67
2022-12-29T07:59:20.592Z,1.63
2022-12-29T08:01:48.457Z,1.70
2022-12-29T08:04:16.411Z,1.63
2022-12-29T08:06:44.240Z,1.58
2022-12-29T08:09:18.212Z,2.30
2022-12-29T08:11:49.982Z,1.20
2022-12-29T08:14:17.804Z,1.70
2022-12-29T08:16:45.556Z,1.33
2022-12-29T08:19:14.046Z,1.58
2022-12-29T08:21:44.562Z,1.40
2022-12-29T08:24:13.672Z,1.85
2022-12-29T08:26:42.269Z,1.70
2022-12-29T08:29:10.091Z,1.80
2022-12-29T08:31:37.928Z,1.40
2022-12-29T08:34:06.737Z,1.38
2022-12-29T08:36:34.578Z,1.73
2022-12-29T08:39:02.375Z,1.35
2022-12-29T08:41:31.470Z,0.75
2022-12-29T08:43:59.214Z,1.50
2022-12-29T08:46:26.963Z,1.27
2022-12-29T08:48:57.806Z,1.33
2022-12-29T08:51:25.589Z,1.42
2022-12-29T08:53:53.567Z,1.95
2022-12-29T08:56:21.922Z,1.65
2022-12-29T08:58:55.046Z,1.40
2022-12-29T09:01:24.324Z,1.75
2022-12-29T09:04:14.390Z,1.30
2022-12-29T09:06:40.827Z,1.40
2022-12-29T09:09:08.723Z,0.32
2022-12-29T09:11:36.500Z,0.93
2022-12-29T09:14:05.697Z,2.05
2022-12-29T09:16:33.537Z,0.93
2022-12-29T09:19:02.085Z,1.40
2022-12-29T09:21:30.045Z,1.23
2022-12-29T09:23:57.788Z,1.10
2022-12-29T09:26:25.562Z,0.93
2022-12-29T09:28:53.354Z,1.20
2022-12-29T09:31:23.140Z,1.08
2022-12-29T09:33:51.026Z,0.80
2022-12-29T09:36:18.764Z,1.55
2022-12-29T09:38:46.527Z,1.67
2022-12-29T09:41:21.434Z,1.05
2022-12-29T09:44:05.298Z,1.63
2022-12-29T09:46:40.297Z,1.25
2022-12-29T09:49:23.154Z,1.25
2022-12-29T09:51:54.777Z,1.10
2022-12-29T09:54:32.556Z,1.15
2022-12-29T09:57:01.082Z,1.10
2022-12-29T09:59:40.258Z,1.48
2022-12-29T10:02:31.320Z,1.75
2022-12-29T10:04:59.894Z,1.20
2022-12-29T10:07:38.606Z,0.90
2022-12-29T10:10:22.223Z,1.45
2022-12-29T10:13:01.586Z,1.27
2022-12-29T10:15:41.355Z,1.50
2022-12-29T10:18:23.311Z,1.48
2022-12-29T10:20:56.873Z,1.40
2022-12-29T10:23:30.239Z,1.40
2022-12-29T10:26:02.015Z,1.10
2022-12-29T10:28:37.299Z,1.23
2022-12-29T10:31:10.102Z,1.00
2022-12-29T10:33:43.759Z,1.08
2022-12-29T10:36:18.035Z,1.00
2022-12-29T10:41:23.954Z,1.40
2022-12-29T10:43:54.994Z,1.63
2022-12-29T10:46:25.283Z,1.10
2022-12-29T10:48:54.602Z,1.05
2022-12-29T10:51:26.007Z,1.30
2022-12-29T10:53:57.548Z,1.30
2022-12-29T10:56:34.688Z,1.30
2022-12-29T10:59:09.102Z,1.40
2022-12-29T11:01:43.857Z,1.20
2022-12-29T11:04:33.250Z,1.17
2022-12-29T11:07:02.757Z,1.10
2022-12-29T11:09:48.447Z,1.63
2022-12-29T11:12:26.142Z,1.27
2022-12-29T11:15:12.925Z,1.13
2022-12-29T11:17:46.982Z,1.35
2022-12-29T11:20:35.816Z,1.20
2022-12-29T11:23:05.373Z,1.17
2022-12-29T11:25:33.506Z,1.50
2022-12-29T11:28:05.126Z,1.10
2022-12-29T11:30:34.368Z,1.15
2022-12-29T11:33:05.519Z,1.20
2022-12-29T11:35:40.422Z,1.67
2022-12-29T11:38:20.616Z,1.30
2022-12-29T11:40:49.700Z,0.93
2022-12-29T11:43:25.876Z,1.45
2022-12-29T11:45:55.066Z,1.73
2022-12-29T11:48:23.346Z,1.17
2022-12-29T11:50:55.364Z,1.05
2022-12-29T11:53:25.660Z,1.70
2022-12-29T11:55:56.973Z,1.05
2022-12-29T11:58:30.759Z,1.50
2022-12-29T12:01:02.892Z,1.15
2022-12-29T12:03:34.704Z,0.90
2022-12-29T12:06:04.761Z,0.90
2022-12-29T12:08:37.919Z,1.05
2022-12-29T12:11:11.798Z,0.90
2022-12-29T12:13:45.639Z,0.98
2022-12-29T12:16:17.568Z,0.77
2022-12-29T12:18:51.543Z,1.17
2022-12-29T12:21:27.341Z,0.85
2022-12-29T12:24:25.345Z,0.60
2022-12-29T12:27:00.761Z,0.70
2022-12-29T12:29:37.705Z,1.08
2022-12-29T12:32:14.215Z,0.90
2022-12-29T12:34:45.052Z,0.50
2022-12-29T12:37:35.685Z,1.02
2022-12-29T12:40:26.694Z,1.08
2022-12-29T12:43:07.061Z,0.65
2022-12-29T12:45:49.085Z,0.98
2022-12-29T12:48:39.341Z,0.95
2022-12-29T12:51:19.347Z,0.90
2022-12-29T12:54:04.390Z,1.00
2022-12-29T12:56:49.485Z,0.88
2022-12-29T12:59:32.340Z,0.77
2022-12-29T13:02:09.199Z,1.00
2022-12-29T13:04:59.206Z,0.90
2022-12-29T13:07:37.834Z,1.20
2022-12-29T13:10:23.599Z,0.93
2022-12-29T13:13:02.957Z,0.90
2022-12-29T13:15:45.096Z,1.10
2022-12-29T13:18:24.445Z,1.10
2022-12-29T13:20:58.603Z,0.90
2022-12-29T13:23:34.627Z,1.13
2022-12-29T13:26:11.556Z,1.08
2022-12-29T13:28:54.905Z,0.80
2022-12-29T13:31:32.339Z,1.30
2022-12-29T13:34:06.589Z,0.88
2022-12-29T13:36:40.763Z,1.05
2022-12-29T13:39:21.127Z,0.98
2022-12-29T13:41:53.656Z,1.10
2022-12-29T13:44:24.732Z,1.40
2022-12-29T13:46:54.496Z,0.80
2022-12-29T13:49:25.355Z,0.88
2022-12-29T13:51:56.184Z,1.05
2022-12-29T13:54:37.445Z,0.82
2022-12-29T13:57:12.767Z,0.77
2022-12-29T13:59:51.569Z,0.88
2022-12-29T14:02:28.711Z,0.82
2022-12-29T14:05:02.099Z,0.85
2022-12-29T14:07:31.025Z,1.10
2022-12-29T14:09:59.633Z,1.00
2022-12-29T14:12:35.114Z,0.45
2022-12-29T14:15:08.553Z,0.65
2022-12-29T14:17:45.160Z,0.70
2022-12-29T14:20:21.552Z,0.45
2022-12-29T14:22:59.276Z,0.90
2022-12-29T14:26:16.023Z,0.90
2022-12-29T14:28:46.179Z,0.90
2022-12-29T14:31:41.637Z,1.63
2022-12-29T14:34:39.205Z,1.30
2022-12-29T14:37:24.281Z,1.00
2022-12-29T14:40:05.597Z,1.25
2022-12-29T14:42:33.926Z,1.00
2022-12-29T14:45:07.847Z,1.30
2022-12-29T14:47:38.593Z,1.55
2022-12-29T14:50:08.798Z,2.08
2022-12-29T14:52:48.307Z,1.65
2022-12-29T14:55:39.379Z,2.28
2022-12-29T14:58:13.690Z,2.03
2022-12-29T15:00:44.402Z,2.10
2022-12-29T15:03:20.033Z,3.20
2022-12-29T15:05:50.927Z,3.10
2022-12-29T15:08:21.687Z,2.70
2022-12-29T15:10:55.530Z,2.40
2022-12-29T15:13:26.106Z,2.60
2022-12-29T15:15:55.480Z,2.40
2022-12-29T15:18:28.702Z,3.20
2022-12-29T15:20:59.057Z,1.83
2022-12-29T15:23:27.502Z,2.28
2022-12-29T15:25:57.808Z,1.42
2022-12-29T15:28:26.719Z,1.40
2022-12-29T15:30:58.145Z,1.20
2022-12-29T15:33:28.795Z,1.10
2022-12-29T15:35:58.903Z,1.30
2022-12-29T15:38:34.532Z,1.60
2022-12-29T15:41:08.923Z,1.10
2022-12-29T15:44:00.299Z,0.90
2022-12-29T15:46:31.633Z,1.10
2022-12-29T15:48:59.541Z,0.70
2022-12-29T15:51:31.940Z,1.08
2022-12-29T15:54:00.159Z,1.30
2022-12-29T15:56:31.161Z,1.40
2022-12-29T15:58:59.669Z,1.00
2022-12-29T16:01:32.047Z,1.27
2022-12-29T16:04:01.408Z,1.00
2022-12-29T16:06:32.599Z,1.00
2022-12-29T16:09:03.524Z,0.93
2022-12-29T16:11:38.255Z,1.10
2022-12-29T16:14:11.113Z,1.10
2022-12-29T16:16:43.296Z,0.73
2022-12-29T16:19:15.740Z,0.63
2022-12-29T16:21:44.752Z,0.70
2022-12-29T16:24:16.958Z,0.88
2022-12-29T16:26:49.754Z,0.70
2022-12-29T16:29:18.492Z,1.27
2022-12-29T16:32:00.864Z,1.08
2022-12-29T16:34:31.899Z,1.30
2022-12-29T16:37:02.102Z,1.98
2022-12-29T16:39:33.405Z,1.52
2022-12-29T16:42:01.670Z,2.05
2022-12-29T16:44:31.395Z,1.55
2022-12-29T16:47:04.845Z,0.82
2022-12-29T16:49:34.749Z,1.23
2022-12-29T16:52:03.205Z,0.75
2022-12-29T16:54:36.160Z,1.00
2022-12-29T16:57:04.416Z,0.88
2022-12-29T16:59:36.234Z,0.88
2022-12-29T17:02:09.684Z,0.77
2022-12-29T17:04:37.618Z,0.70
2022-12-29T17:07:06.793Z,0.50
2022-12-29T17:09:34.568Z,0.90
2022-12-29T17:12:10.761Z,0.60
2022-12-29T17:14:45.087Z,0.75
2022-12-29T17:17:21.316Z,0.90
2022-12-29T17:19:52.583Z,0.70
2022-12-29T17:22:25.058Z,0.65
2022-12-29T17:24:53.664Z,0.70
2022-12-29T17:27:26.100Z,0.60
2022-12-29T17:29:57.132Z,0.70
2022-12-29T17:32:26.592Z,0.75
2022-12-29T17:34:54.382Z,0.90
2022-12-29T17:37:32.726Z,1.27
2022-12-29T17:40:00.517Z,0.73
2022-12-29T17:42:28.519Z,0.80
2022-12-29T17:44:56.883Z,0.50
2022-12-29T17:47:25.977Z,0.73
2022-12-29T17:49:53.881Z,0.85
2022-12-29T17:52:22.283Z,0.50
2022-12-29T17:54:53.371Z,0.80
2022-12-29T17:57:22.383Z,0.50
2022-12-29T17:59:50.232Z,0.80
2022-12-29T18:02:29.337Z,0.57
2022-12-29T18:04:58.460Z,0.98
2022-12-29T18:07:35.419Z,0.80
2022-12-29T18:10:04.649Z,1.13
2022-12-29T18:12:38.659Z,0.90
2022-12-29T18:15:07.763Z,1.00
2022-12-29T18:17:36.931Z,1.00
2022-12-29T18:20:05.171Z,0.70
2022-12-29T18:22:32.986Z,0.90
2022-12-29T18:25:02.056Z,0.50
2022-12-29T18:27:30.095Z,0.75
2022-12-29T18:29:57.903Z,0.70
2022-12-29T18:32:25.747Z,0.70
2022-12-29T18:34:55.014Z,0.75
2022-12-29T18:37:22.835Z,0.90
2022-12-29T18:39:51.208Z,1.30
2022-12-29T18:42:19.531Z,0.63
2022-12-29T18:44:47.302Z,2.92
2022-12-29T18:47:15.213Z,2.20
2022-12-29T18:49:43.669Z,1.55
2022-12-29T18:52:14.865Z,1.05
2022-12-29T18:54:42.837Z,1.08
2022-12-29T18:57:10.598Z,0.75
2022-12-29T18:59:39.083Z,0.82
2022-12-29T19:02:06.945Z,1.05
2022-12-29T19:04:34.735Z,0.95
2022-12-29T19:07:02.478Z,1.10
2022-12-29T19:09:31.780Z,1.08
2022-12-29T19:11:59.479Z,0.75
2022-12-29T19:14:27.305Z,1.17
2022-12-29T19:16:55.102Z,1.17
2022-12-29T19:19:22.908Z,1.00
2022-12-29T19:21:56.284Z,1.52
2022-12-29T19:24:24.070Z,1.23
2022-12-29T19:26:53.277Z,0.77
2022-12-29T19:29:22.330Z,1.20
2022-12-29T19:31:50.146Z,1.15
2022-12-29T19:34:18.978Z,0.80
2022-12-29T19:36:47.051Z,1.08
2022-12-29T19:39:14.968Z,1.27
2022-12-29T19:41:42.805Z,0.73
2022-12-29T19:44:11.862Z,0.88
2022-12-29T19:46:39.756Z,0.82
2022-12-29T19:49:07.612Z,0.77
2022-12-29T19:51:35.423Z,1.67
2022-12-29T19:54:06.214Z,0.93
2022-12-29T19:56:34.063Z,1.10
2022-12-29T19:59:01.762Z,0.90
2022-12-29T20:01:30.960Z,0.80
2022-12-29T20:03:59.188Z,0.75
2022-12-29T20:06:26.991Z,0.68
2022-12-29T20:08:55.518Z,0.90
2022-12-29T20:11:23.226Z,1.02
2022-12-29T20:13:51.179Z,0.82
2022-12-29T20:16:20.760Z,0.75
2022-12-29T20:18:50.755Z,1.50
2022-12-29T20:21:20.443Z,0.57
2022-12-29T20:23:48.950Z,1.00
2022-12-29T20:26:18.876Z,0.82
2022-12-29T20:28:47.407Z,1.02
2022-12-29T20:31:19.432Z,0.70
2022-12-29T20:33:47.291Z,0.85
2022-12-29T20:36:19.029Z,0.90
2022-12-29T20:38:47.700Z,1.17
2022-12-29T20:41:15.789Z,0.88
2022-12-29T20:43:43.653Z,0.75
2022-12-29T20:46:18.079Z,1.05
2022-12-29T20:48:48.647Z,0.65
2022-12-29T20:51:18.431Z,0.95
2022-12-29T20:53:46.360Z,0.63
2022-12-29T20:56:16.080Z,0.95
2022-12-29T20:59:17.099Z,0.80
2022-12-29T21:01:32.055Z,0.63
2022-12-29T21:04:00.745Z,0.90
2022-12-29T21:06:29.861Z,0.80
2022-12-29T21:08:57.601Z,0.80
2022-12-29T21:11:25.555Z,0.80
2022-12-29T21:13:53.379Z,0.50
2022-12-29T21:16:21.855Z,0.65
2022-12-29T21:18:50.052Z,0.52
2022-12-29T21:21:20.085Z,0.70
2022-12-29T21:23:49.657Z,0.80
2022-12-29T21:26:19.774Z,0.57
2022-12-29T21:28:48.011Z,0.52
2022-12-29T21:31:26.723Z,0.50
2022-12-29T21:33:55.189Z,0.77
2022-12-29T21:36:24.409Z,0.70
2022-12-29T21:38:53.917Z,0.63
2022-12-29T21:41:22.380Z,0.90
2022-12-29T21:44:04.347Z,0.65
2022-12-29T21:46:32.238Z,0.70
2022-12-29T21:49:02.998Z,0.52
2022-12-29T21:51:48.503Z,0.40
2022-12-29T21:54:39.844Z,0.40
2022-12-29T21:57:08.531Z,0.22
2022-12-29T22:00:01.217Z,0.93
2022-12-29T22:02:46.624Z,0.40
2022-12-29T22:05:35.712Z,0.85
2022-12-29T22:08:26.715Z,0.50
2022-12-29T22:11:13.176Z,0.50
2022-12-29T22:13:41.460Z,0.40
2022-12-29T22:16:11.357Z,0.40
2022-12-29T22:18:39.673Z,0.30
2022-12-29T22:21:08.725Z,0.38
2022-12-29T22:23:37.592Z,0.63
2022-12-29T22:26:16.697Z,0.40
2022-12-29T22:28:47.856Z,0.57
2022-12-29T22:31:29.355Z,0.57
2022-12-29T22:33:57.947Z,0.45
2022-12-29T22:36:27.134Z,0.47
2022-12-29T22:38:55.135Z,0.60
2022-12-29T22:41:25.127Z,0.65
2022-12-29T22:43:52.927Z,0.80
2022-12-29T22:46:37.450Z,0.70
2022-12-29T22:49:06.526Z,0.65
2022-12-29T22:51:36.905Z,0.70
2022-12-29T22:54:04.786Z,0.60
2022-12-29T22:56:42.095Z,0.70
2022-12-29T22:59:13.577Z,0.70
2022-12-29T23:01:44.184Z,0.60
2022-12-29T23:04:59.202Z,0.63
2022-12-29T23:06:59.845Z,1.10
2022-12-29T23:09:30.305Z,1.45
2022-12-29T23:11:59.611Z,0.70
2022-12-29T23:14:29.983Z,0.88
2022-12-29T23:16:57.725Z,0.80
2022-12-29T23:19:26.863Z,0.80
2022-12-29T23:21:56.697Z,0.90
2022-12-29T23:24:28.253Z,1.05
2022-12-29T23:26:56.296Z,0.80
2022-12-29T23:29:25.489Z,1.10
2022-12-29T23:31:56.045Z,0.57
2022-12-29T23:34:23.792Z,0.68
2022-12-29T23:36:51.978Z,0.60
2022-12-29T23:39:23.216Z,0.52
2022-12-29T23:41:51.044Z,0.50
2022-12-29T23:44:19.074Z,0.47
2022-12-29T23:46:51.301Z,0.50
2022-12-29T23:49:24.431Z,0.65
2022-12-29T23:51:56.034Z,1.08
2022-12-29T23:54:25.321Z,0.65
2022-12-29T23:56:53.045Z,0.77
2022-12-29T23:59:20.901Z,0.70
